Time;durP1;ratioP1;P1;durP2;ratioP2;P2;SDS_P1;SDS_P2;PMS_P1;PMS_P2;Temp;Humidity;BMP_temperature;BMP_pressure;BME280_temperature;BME280_humidity;BME280_pressure;Samples;Min_cycle;Max_cycle;Signal;HPM_P1;HPM_P2
2024/04/15 00:01:18;;;;;;;5.70;2.33;;;;;;;17.05;77.59;99846.25;6921494;25;20003;-77
2024/04/15 00:04:19;;;;;;;6.20;2.17;;;;;;;17.00;77.24;99840.53;6920835;25;20391;-76
2024/04/15 00:07:21;;;;;;;3.22;1.88;;;;;;;16.98;77.40;99842.47;6921444;25;20007;-75
2024/04/15 00:10:21;;;;;;;2.72;1.95;;;;;;;16.94;77.71;99847.19;6921560;25;20005;-75
2024/04/15 00:13:25;;;;;;;3.45;2.10;;;;;;;16.92;77.57;99834.19;6954949;25;20086;-76
2024/04/15 00:16:32;;;;;;;3.35;2.30;;;;;;;16.88;77.29;99834.56;6954766;25;19992;-75
2024/04/15 00:19:35;;;;;;;3.55;2.25;;;;;;;16.89;77.22;99841.53;6921371;25;19996;-76
2024/04/15 00:22:37;;;;;;;5.15;2.40;;;;;;;16.95;76.90;99835.69;6954789;25;20000;-75
2024/04/15 00:25:37;;;;;;;11.75;2.35;;;;;;;16.71;77.65;99831.63;6921480;25;20011;-75
2024/04/15 00:28:38;;;;;;;5.38;2.22;;;;;;;16.71;77.81;99829.00;6954470;25;20067;-75
2024/04/15 00:31:39;;;;;;;7.45;2.53;;;;;;;16.79;76.72;99825.69;6921164;25;19992;-75
2024/04/15 00:34:41;;;;;;;8.70;2.80;;;;;;;16.80;76.90;99819.44;6921026;25;20019;-75
2024/04/15 00:37:42;;;;;;;5.40;2.50;;;;;;;16.73;77.23;99816.53;6954094;25;20272;-66
2024/04/15 00:40:43;;;;;;;5.72;2.53;;;;;;;16.66;77.22;99814.59;6953906;25;20256;-66
2024/04/15 00:43:44;;;;;;;5.57;2.17;;;;;;;16.54;77.07;99813.06;6920838;25;20012;-67
2024/04/15 00:46:45;;;;;;;3.33;2.20;;;;;;;16.62;76.74;99808.78;6919503;25;20364;-76
2024/04/15 00:49:47;;;;;;;4.93;2.47;;;;;;;16.72;76.71;99806.97;6919234;25;20465;-75
2024/04/15 00:52:48;;;;;;;4.93;2.45;;;;;;;16.66;76.34;99804.88;6919477;25;20027;-75
2024/04/15 00:55:53;;;;;;;3.33;2.43;;;;;;;16.58;77.04;99806.56;6919130;25;19996;-75
2024/04/15 00:58:56;;;;;;;4.88;2.58;;;;;;;16.44;77.80;99798.06;6920270;25;20220;-76
2024/04/15 01:02:01;;;;;;;5.60;2.58;;;;;;;16.44;77.45;99802.53;6953685;25;20461;-75
2024/04/15 01:05:02;;;;;;;5.53;2.80;;;;;;;16.23;78.48;99792.94;6919895;25;20044;-75
2024/04/15 01:08:04;;;;;;;4.67;2.40;;;;;;;16.24;78.32;99793.75;6952929;25;20023;-75
2024/04/15 01:11:06;;;;;;;9.48;2.58;;;;;;;16.29;78.16;99795.03;6953647;25;19992;-75
2024/04/15 01:14:07;;;;;;;2.88;1.98;;;;;;;16.20;77.62;99784.47;6953824;25;20019;-76
2024/04/15 01:17:07;;;;;;;3.25;2.35;;;;;;;16.17;77.77;99785.59;6920056;25;19999;-76
2024/04/15 01:20:09;;;;;;;3.97;2.43;;;;;;;16.20;77.37;99790.56;6953127;25;20018;-76
2024/04/15 01:23:17;;;;;;;5.85;2.60;;;;;;;16.07;78.52;99779.47;6920250;25;20067;-75
2024/04/15 01:26:18;;;;;;;5.95;2.67;;;;;;;16.06;77.63;99783.06;6953298;25;20011;-76
2024/04/15 01:29:20;;;;;;;3.13;2.47;;;;;;;16.01;77.67;99772.94;6920094;25;20003;-76
2024/04/15 01:32:21;;;;;;;4.67;2.33;;;;;;;16.02;77.91;99768.50;6920142;25;20402;-75
2024/04/15 01:35:24;;;;;;;6.63;2.63;;;;;;;15.96;77.87;99758.50;6920217;25;19992;-75
2024/04/15 01:38:25;;;;;;;4.88;2.50;;;;;;;15.91;78.12;99758.94;6953174;25;20003;-75
2024/04/15 01:41:26;;;;;;;2.93;2.63;;;;;;;15.93;77.89;99748.28;6919874;25;20039;-75
2024/04/15 01:44:28;;;;;;;5.77;2.30;;;;;;;15.76;78.60;99747.97;6888477;25;20000;-75
2024/04/15 01:47:30;;;;;;;4.65;2.75;;;;;;;15.83;78.41;99748.25;6919956;25;20068;-76
2024/04/15 01:50:31;;;;;;;9.82;2.80;;;;;;;15.80;78.64;99741.47;6952934;25;20033;-76
2024/04/15 01:53:32;;;;;;;4.10;2.20;;;;;;;15.72;79.35;99733.41;6919946;25;20015;-66
2024/04/15 01:56:33;;;;;;;5.47;2.38;;;;;;;15.71;78.83;99718.59;6952770;25;20717;-67
2024/04/15 01:59:34;;;;;;;5.70;2.60;;;;;;;15.69;78.96;99717.88;6953025;25;20088;-67
2024/04/15 02:02:35;;;;;;;7.68;2.53;;;;;;;15.73;79.34;99715.81;6952855;25;20446;-67
2024/04/15 02:05:36;;;;;;;5.20;2.67;;;;;;;15.68;79.35;99713.56;6919359;25;20000;-67
2024/04/15 02:08:37;;;;;;;4.53;2.37;;;;;;;15.65;79.02;99708.59;6918893;25;19988;-67
2024/04/15 02:11:38;;;;;;;6.70;2.80;;;;;;;15.53;78.96;99705.25;6919512;25;20017;-67
2024/04/15 02:14:41;;;;;;;4.43;2.78;;;;;;;15.41;79.78;99695.78;6919312;25;20264;-67
2024/04/15 02:17:43;;;;;;;5.25;3.03;;;;;;;15.49;79.54;99699.41;6952510;25;20604;-67
2024/04/15 02:20:44;;;;;;;3.38;2.40;;;;;;;15.41;79.80;99693.16;6919153;25;19999;-67
2024/04/15 02:23:45;;;;;;;5.65;2.65;;;;;;;15.40;79.87;99686.22;6952303;25;19988;-66
2024/04/15 02:26:46;;;;;;;5.07;2.47;;;;;;;15.36;80.03;99679.56;6952206;25;20007;-67
2024/04/15 02:29:47;;;;;;;10.33;2.73;;;;;;;15.34;80.57;99677.09;6952140;25;20059;-66
2024/04/15 02:32:48;;;;;;;4.35;2.65;;;;;;;15.32;79.88;99671.13;6919177;25;20074;-67
2024/04/15 02:35:50;;;;;;;6.97;2.50;;;;;;;15.24;80.42;99674.44;6951883;25;19996;-67
2024/04/15 02:38:51;;;;;;;6.80;2.67;;;;;;;15.20;80.78;99666.94;6951748;25;20334;-66
2024/04/15 02:41:52;;;;;;;6.03;2.70;;;;;;;15.21;80.17;99656.28;6918535;25;19996;-67
2024/04/15 02:44:54;;;;;;;4.50;2.60;;;;;;;15.20;80.37;99659.88;6951722;25;20004;-67
2024/04/15 02:47:54;;;;;;;3.63;2.72;;;;;;;15.20;80.37;99646.75;6918658;25;20063;-67
2024/04/15 02:50:56;;;;;;;3.43;2.20;;;;;;;15.15;80.77;99651.56;6951681;25;20473;-76
2024/04/15 02:53:57;;;;;;;5.07;2.75;;;;;;;15.07;81.20;99654.00;6918245;25;19999;-76
2024/04/15 02:56:58;;;;;;;4.82;2.50;;;;;;;15.14;81.40;99652.53;6918513;25;20004;-76
2024/04/15 03:00:00;;;;;;;4.03;2.43;;;;;;;15.04;81.49;99643.78;6951284;25;19997;-76
2024/04/15 03:03:03;;;;;;;4.55;2.83;;;;;;;15.10;81.92;99651.13;6918075;25;20457;-76
2024/04/15 03:06:04;;;;;;;6.32;2.83;;;;;;;15.08;81.48;99643.38;6950914;25;19996;-76
2024/04/15 03:09:08;;;;;;;5.77;2.60;;;;;;;14.98;82.00;99644.31;6918035;25;19992;-75
2024/04/15 03:12:09;;;;;;;3.45;2.60;;;;;;;14.89;82.28;99632.81;6950975;25;19988;-76
2024/04/15 03:15:10;;;;;;;7.53;2.80;;;;;;;14.89;82.67;99632.81;6916987;25;20023;-75
2024/04/15 03:18:11;;;;;;;4.57;2.58;;;;;;;14.90;82.02;99623.94;6949316;25;20513;-75
2024/04/15 03:21:12;;;;;;;4.35;2.45;;;;;;;14.94;82.56;99629.78;6920987;25;20004;-76
2024/04/15 03:24:14;;;;;;;6.82;3.40;;;;;;;14.95;82.49;99624.41;6955294;25;20394;-76
2024/04/15 03:27:19;;;;;;;4.45;2.90;;;;;;;14.87;82.61;99622.41;6922174;25;19992;-68
2024/04/15 03:30:23;;;;;;;8.30;2.65;;;;;;;14.87;82.82;99621.59;6955057;25;20014;-68
2024/04/15 03:33:23;;;;;;;3.85;2.45;;;;;;;14.87;82.94;99617.16;6922123;25;20003;-67
2024/04/15 03:36:24;;;;;;;5.53;2.60;;;;;;;14.83;82.69;99602.63;6922041;25;19996;-67
2024/04/15 03:39:25;;;;;;;4.70;2.97;;;;;;;14.83;82.71;99613.13;6954992;25;20037;-67
2024/04/15 03:42:26;;;;;;;4.53;2.92;;;;;;;14.86;82.43;99604.16;6955281;25;20000;-67
2024/04/15 03:45:27;;;;;;;4.45;3.10;;;;;;;14.83;82.63;99600.00;6955132;25;20048;-76
2024/04/15 03:48:33;;;;;;;4.00;2.92;;;;;;;14.75;82.35;99589.31;6955175;25;19992;-76
2024/04/15 03:51:34;;;;;;;9.35;3.25;;;;;;;14.82;83.02;99592.25;6955262;25;19999;-67
2024/04/15 03:54:38;;;;;;;4.97;2.90;;;;;;;14.76;83.28;99592.78;6954892;25;19992;-67
2024/04/15 03:57:39;;;;;;;5.32;3.35;;;;;;;14.82;83.38;99593.06;6939294;25;20015;-67
2024/04/15 04:00:40;;;;;;;5.53;2.53;;;;;;;14.88;83.17;99589.09;6921836;25;19996;-67
2024/04/15 04:03:41;;;;;;;4.47;2.70;;;;;;;14.80;83.30;99586.28;6906562;25;20032;-76
2024/04/15 04:06:42;;;;;;;4.43;2.90;;;;;;;14.94;82.62;99585.94;6935116;25;20004;-76
2024/04/15 04:09:43;;;;;;;9.35;2.78;;;;;;;14.91;82.64;99573.09;6954911;25;20044;-76
2024/04/15 04:12:44;;;;;;;4.07;2.70;;;;;;;14.93;82.98;99586.06;6922251;25;19996;-76
2024/04/15 04:15:46;;;;;;;3.80;2.55;;;;;;;15.03;82.21;99576.41;6921430;25;20066;-76
2024/04/15 04:18:47;;;;;;;4.57;3.17;;;;;;;15.18;81.27;99574.28;6914351;25;19996;-76
2024/04/15 04:21:48;;;;;;;6.18;3.50;;;;;;;15.26;81.39;99577.88;6954503;25;19988;-76
2024/04/15 04:24:49;;;;;;;5.57;3.03;;;;;;;15.26;81.05;99569.16;6921335;25;20037;-76
2024/04/15 04:27:51;;;;;;;6.70;3.20;;;;;;;15.33;80.78;99575.53;6913236;25;20007;-76
2024/04/15 04:30:52;;;;;;;4.63;2.93;;;;;;;15.29;81.10;99572.34;6911798;25;20011;-76
2024/04/15 04:33:53;;;;;;;4.35;2.60;;;;;;;15.34;80.76;99566.69;6930301;25;19995;-67
2024/04/15 04:36:56;;;;;;;12.05;2.90;;;;;;;15.48;80.55;99571.56;6899638;25;20340;-67
2024/04/15 04:39:57;;;;;;;5.85;2.88;;;;;;;15.36;80.37;99561.28;6933165;25;20007;-67
2024/04/15 04:43:00;;;;;;;10.82;3.22;;;;;;;15.55;80.32;99563.94;6906999;25;20082;-67
2024/04/15 04:46:09;;;;;;;4.35;2.88;;;;;;;15.54;79.59;99557.00;6924763;25;20000;-68
2024/04/15 04:49:11;;;;;;;9.45;3.10;;;;;;;15.71;79.45;99564.22;6953952;25;20063;-68
2024/04/15 04:52:12;;;;;;;;;;;;;;;15.69;79.30;99555.66;6921326;25;20055;-67
2024/04/15 04:55:13;;;;;;;6.55;2.85;;;;;;;15.84;78.95;99557.88;6920421;25;20260;-67
2024/04/15 04:58:14;;;;;;;4.63;2.70;;;;;;;15.86;78.16;99548.88;6918419;25;19996;-67
2024/04/15 05:01:21;;;;;;;6.23;3.40;;;;;;;15.98;78.11;99546.94;6901302;25;20007;-67
2024/04/15 05:04:22;;;;;;;4.70;3.13;;;;;;;15.86;77.61;99543.63;6926368;25;20007;-68
2024/04/15 05:07:24;;;;;;;4.37;3.00;;;;;;;16.08;77.11;99536.38;6951422;25;20486;-67
2024/04/15 05:10:27;;;;;;;6.17;2.60;;;;;;;15.96;77.39;99537.50;6948289;25;19996;-67
2024/04/15 05:13:28;;;;;;;15.80;3.15;;;;;;;15.99;77.41;99535.44;6943473;25;20011;-67
2024/04/15 05:16:32;;;;;;;4.60;2.72;;;;;;;16.02;77.12;99532.53;6919288;25;19996;-67
2024/04/15 05:19:32;;;;;;;3.50;2.80;;;;;;;16.02;77.01;99522.00;6918888;25;20430;-67
2024/04/15 05:22:33;;;;;;;5.63;2.97;;;;;;;16.07;76.98;99521.56;6950441;25;20015;-67
2024/04/15 05:25:38;;;;;;;5.93;3.30;;;;;;;16.38;76.71;99516.09;6911538;25;20000;-68
2024/04/15 05:28:40;;;;;;;8.75;3.45;;;;;;;16.39;76.44;99513.31;6907802;25;20005;-67
2024/04/15 05:31:41;;;;;;;6.17;2.90;;;;;;;16.46;75.82;99503.84;6883002;25;20008;-68
2024/04/15 05:34:45;;;;;;;4.53;2.90;;;;;;;16.53;75.38;99512.00;6905111;25;19989;-68
2024/04/15 05:37:45;;;;;;;11.38;2.95;;;;;;;16.71;74.83;99510.25;6904661;25;20343;-68
2024/04/15 05:40:47;;;;;;;6.13;2.70;;;;;;;16.76;74.86;99507.19;6905582;25;20007;-67
2024/04/15 05:43:47;;;;;;;4.25;2.78;;;;;;;16.86;74.40;99500.09;6904258;25;19992;-67
2024/04/15 05:46:52;;;;;;;3.83;2.63;;;;;;;17.06;74.60;99492.88;6872417;25;20075;-67
2024/04/15 05:49:53;;;;;;;7.60;2.90;;;;;;;17.18;73.92;99482.16;6872615;25;20335;-67
2024/04/15 05:52:54;;;;;;;9.90;2.75;;;;;;;17.17;73.09;99491.00;6905543;25;20029;-67
2024/04/15 05:55:56;;;;;;;4.15;2.53;;;;;;;17.38;73.03;99491.56;6904978;25;20020;-67
2024/04/15 05:58:56;;;;;;;;;;;;;;;17.47;71.82;99489.81;6872627;25;20064;-67
2024/04/15 06:01:57;;;;;;;4.07;2.38;;;;;;;17.63;71.58;99486.50;6872296;25;19935;-66
2024/04/15 06:04:59;;;;;;;7.75;2.78;;;;;;;17.76;71.02;99492.19;6872483;25;20004;-66
2024/04/15 06:08:03;;;;;;;7.20;2.70;;;;;;;17.79;70.47;99488.41;6904870;25;20000;-67
2024/04/15 06:11:03;;;;;;;3.33;2.28;;;;;;;18.13;69.85;99476.13;6904960;25;20004;-76
2024/04/15 06:14:04;;;;;;;10.27;2.53;;;;;;;18.12;68.99;99469.22;6871936;25;19996;-76
2024/04/15 06:17:05;;;;;;;7.57;2.83;;;;;;;18.27;68.15;99474.72;6904626;25;19993;-67
2024/04/15 06:20:09;;;;;;;8.73;2.42;;;;;;;18.41;68.15;99462.75;6871926;25;20408;-76
2024/04/15 06:23:10;;;;;;;5.72;2.60;;;;;;;18.42;67.92;99453.84;6871893;25;20343;-76
2024/04/15 06:26:15;;;;;;;6.28;2.60;;;;;;;18.59;67.55;99454.72;6904291;25;20068;-76
2024/04/15 06:29:18;;;;;;;4.95;2.30;;;;;;;18.66;66.19;99442.53;6904723;25;20004;-76
2024/04/15 06:32:20;;;;;;;5.45;2.10;;;;;;;18.84;65.91;99429.25;6871962;25;20001;-76
2024/04/15 06:35:21;;;;;;;5.82;2.92;;;;;;;18.98;65.54;99443.63;6871822;25;19997;-76
2024/04/15 06:38:22;;;;;;;6.97;2.03;;;;;;;19.09;64.30;99438.03;6904345;25;20323;-76
2024/04/15 06:41:24;;;;;;;4.20;2.20;;;;;;;19.28;64.04;99431.59;6904389;25;20284;-76
2024/04/15 06:44:26;;;;;;;6.07;2.78;;;;;;;19.50;63.33;99424.81;6871628;25;20446;-76
2024/04/15 06:47:27;;;;;;;6.20;2.40;;;;;;;19.45;62.31;99416.53;6871417;25;20001;-76
2024/04/15 06:50:31;;;;;;;7.75;2.53;;;;;;;19.47;62.21;99411.91;6904486;25;20004;-76
2024/04/15 06:53:31;;;;;;;6.07;2.40;;;;;;;19.74;61.45;99415.22;6872836;25;20007;-76
2024/04/15 06:56:32;;;;;;;6.33;2.63;;;;;;;19.83;61.36;99418.66;6876294;25;20419;-76
2024/04/15 06:59:34;;;;;;;4.72;2.17;;;;;;;20.03;61.55;99417.28;6875921;25;20545;-76
2024/04/15 07:02:34;;;;;;;4.85;2.75;;;;;;;20.24;60.20;99410.59;6908662;25;20461;-76
2024/04/15 07:05:35;;;;;;;3.23;2.27;;;;;;;20.02;60.35;99415.66;6908317;25;20332;-76
2024/04/15 07:08:39;;;;;;;7.30;2.73;;;;;;;20.32;60.19;99413.22;6908538;25;19997;-76
2024/04/15 07:11:42;;;;;;;4.75;2.67;;;;;;;20.22;59.42;99412.59;6908904;25;20467;-76
2024/04/15 07:14:46;;;;;;;6.32;2.67;;;;;;;20.19;58.70;99413.78;6875765;25;19989;-76
2024/04/15 07:17:47;;;;;;;7.80;2.42;;;;;;;20.29;58.82;99409.09;6875540;25;20001;-76
2024/04/15 07:20:48;;;;;;;4.17;2.10;;;;;;;20.40;59.98;99410.53;6875420;25;20000;-76
2024/04/15 07:23:49;;;;;;;4.05;2.35;;;;;;;20.59;59.32;99412.00;6875660;25;20335;-76
2024/04/15 07:26:49;;;;;;;6.07;2.23;;;;;;;20.49;58.87;99414.00;6875304;25;19997;-76
2024/04/15 07:29:50;;;;;;;7.13;2.58;;;;;;;20.52;57.84;99409.16;6908101;25;20007;-76
2024/04/15 07:32:52;;;;;;;4.05;2.40;;;;;;;20.61;57.98;99394.09;6875261;25;19989;-76
2024/04/15 07:35:57;;;;;;;7.90;2.77;;;;;;;20.59;58.18;99395.25;6875355;25;20446;-75
2024/04/15 07:38:58;;;;;;;14.82;2.85;;;;;;;20.73;58.52;99390.03;6874789;25;19997;-76
2024/04/15 07:41:59;;;;;;;7.68;3.10;;;;;;;20.89;57.91;99389.09;6875019;25;20008;-76
2024/04/15 07:45:01;;;;;;;4.60;2.50;;;;;;;21.13;57.30;99396.03;6875096;25;19996;-76
2024/04/15 07:48:02;;;;;;;12.23;2.87;;;;;;;20.93;57.13;99392.22;6907505;25;20001;-76
2024/04/15 07:51:06;;;;;;;6.78;2.28;;;;;;;21.21;57.64;99384.56;6874890;25;20024;-76
2024/04/15 07:54:06;;;;;;;2.58;2.00;;;;;;;21.14;57.69;99391.56;6874791;25;20003;-76
2024/04/15 07:57:10;;;;;;;3.08;2.47;;;;;;;21.46;57.30;99390.50;6875016;25;19993;-76
2024/04/15 08:00:11;;;;;;;7.93;2.65;;;;;;;21.23;57.45;99387.84;6907475;25;20000;-77
2024/04/15 08:03:12;;;;;;;5.18;2.53;;;;;;;21.43;56.42;99390.03;6907534;25;20462;-77
2024/04/15 08:06:14;;;;;;;6.72;2.50;;;;;;;21.66;57.02;99389.97;6906637;25;20010;-76
2024/04/15 08:09:15;;;;;;;4.85;2.22;;;;;;;21.87;55.63;99390.09;6874581;25;20023;-76
2024/04/15 08:12:20;;;;;;;8.10;2.80;;;;;;;21.90;55.47;99384.38;6907346;25;19993;-77
2024/04/15 08:15:21;;;;;;;4.45;2.58;;;;;;;22.11;54.99;99382.81;6907562;25;20458;-76
2024/04/15 08:18:23;;;;;;;7.88;2.70;;;;;;;21.97;54.38;99391.63;6907010;25;20015;-76
2024/04/15 08:21:24;;;;;;;;;;;;;;;22.43;54.13;99378.16;6874821;25;20442;-77
2024/04/15 08:24:28;;;;;;;4.32;2.33;;;;;;;22.74;53.45;99384.00;6906923;25;19930;-77
2024/04/15 08:27:28;;;;;;;5.00;2.78;;;;;;;22.84;50.87;99380.22;6873681;25;20007;-69
2024/04/15 08:30:29;;;;;;;6.23;2.80;;;;;;;;;;6906896;25;19996;-69
2024/04/15 08:33:30;;;;;;;8.60;2.30;;;;;;;23.16;49.89;99378.09;6906762;25;20443;-68
2024/04/15 08:36:34;;;;;;;12.30;2.60;;;;;;;23.02;50.97;99367.34;6873940;25;19997;-69
2024/04/15 08:39:37;;;;;;;9.43;2.70;;;;;;;22.84;50.60;99364.28;6858634;26;20013;-68
2024/04/15 08:42:48;;;;;;;7.30;2.53;;;;;;;23.21;50.46;99362.38;6859872;25;20002;-68
2024/04/15 08:45:56;;;;;;;7.13;2.70;;;;;;;23.53;49.48;99364.47;6858491;26;20444;-67
2024/04/15 08:48:57;;;;;;;9.65;2.60;;;;;;;24.06;49.57;99366.63;6858514;26;20047;-69
2024/04/15 08:52:01;;;;;;;4.22;2.55;;;;;;;24.10;48.26;99361.72;6860206;25;20012;-68
2024/04/15 08:55:03;;;;;;;6.72;2.72;;;;;;;23.86;46.98;99365.69;6860340;25;20309;-68
2024/04/15 08:58:04;;;;;;;5.25;2.42;;;;;;;23.92;47.60;99364.91;6860146;25;20045;-68
2024/04/15 09:01:07;;;;;;;7.30;2.38;;;;;;;23.78;46.62;99353.34;6858029;26;20005;-67
2024/04/15 09:04:09;;;;;;;4.25;2.65;;;;;;;23.98;47.85;99356.13;6858194;26;19998;-68
2024/04/15 09:07:10;;;;;;;7.53;2.70;;;;;;;23.95;46.43;99361.88;6858061;26;20456;-68
2024/04/15 09:10:13;;;;;;;8.55;2.47;;;;;;;23.89;46.94;99357.34;6857982;26;20020;-68
2024/04/15 09:13:14;;;;;;;;;;;;;;;24.17;46.54;99356.41;6858809;26;19994;-68
2024/04/15 09:16:16;;;;;;;5.40;2.30;;;;;;;24.18;47.05;99344.75;6866731;25;19924;-68
2024/04/15 09:19:17;;;;;;;8.25;3.20;;;;;;;24.58;47.30;99352.91;6867172;25;20463;-68
2024/04/15 09:22:19;;;;;;;5.45;2.30;;;;;;;24.36;47.28;99350.34;6860091;25;19997;-68
2024/04/15 09:25:22;;;;;;;6.03;2.50;;;;;;;24.19;47.04;99341.88;6859427;25;20045;-68
2024/04/15 09:28:25;;;;;;;6.53;2.50;;;;;;;23.73;47.12;99342.44;6859703;25;20041;-68
2024/04/15 09:31:26;;;;;;;11.35;2.67;;;;;;;23.90;47.76;99333.13;6857919;26;20358;-68
2024/04/15 09:34:27;;;;;;;9.57;2.27;;;;;;;24.05;48.31;99326.84;6899504;25;19996;-68
2024/04/15 09:37:28;;;;;;;4.90;2.50;;;;;;;23.77;47.35;99324.28;6909857;25;20011;-68
2024/04/15 09:40:29;;;;;;;3.25;2.40;;;;;;;23.59;48.75;99320.25;6952573;25;20011;-68
2024/04/15 09:43:31;;;;;;;5.53;2.85;;;;;;;23.37;48.37;99316.00;6919580;25;20007;-68
2024/04/15 09:46:33;;;;;;;;;;;;;;;23.29;49.39;99301.84;6953065;25;20003;-68
2024/04/15 09:49:36;;;;;;;6.78;2.50;;;;;;;23.32;48.94;99304.09;6907645;25;19929;-68
2024/04/15 09:52:42;;;;;;;4.88;2.60;;;;;;;23.70;49.16;99306.41;6872576;25;20428;-68
2024/04/15 09:55:53;;;;;;;6.90;2.85;;;;;;;23.56;48.93;99304.66;6905326;25;19999;-69
2024/04/15 09:58:56;;;;;;;10.40;3.03;;;;;;;23.60;48.09;99299.78;6872372;25;20443;-68
2024/04/15 10:02:04;;;;;;;12.07;2.65;;;;;;;23.56;48.04;99298.53;6905259;25;20065;-68
2024/04/15 10:05:22;;;;;;;6.47;2.45;;;;;;;23.40;49.80;99286.34;6904499;25;20008;-68
2024/04/15 10:08:23;;;;;;;7.00;2.60;;;;;;;23.54;49.14;99283.56;6872348;25;20021;-68
2024/04/15 10:11:27;;;;;;;7.53;2.73;;;;;;;23.71;47.80;99270.75;6904915;25;20037;-68
2024/04/15 10:14:31;;;;;;;7.53;2.65;;;;;;;23.76;48.14;99254.16;6904883;25;19992;-68
2024/04/15 10:17:32;;;;;;;3.53;2.20;;;;;;;23.78;47.52;99251.34;6904310;25;19992;-68
2024/04/15 10:20:37;;;;;;;5.17;2.60;;;;;;;24.10;47.09;99239.97;6904729;25;20511;-69
2024/04/15 10:23:43;;;;;;;4.40;2.60;;;;;;;24.28;47.49;99243.91;6871812;25;20004;-68
2024/04/15 10:26:48;;;;;;;5.80;2.75;;;;;;;24.68;47.43;99239.44;6904532;25;19993;-68
2024/04/15 10:29:50;;;;;;;4.25;2.47;;;;;;;25.14;46.94;99235.94;6904227;25;20019;-69
2024/04/15 10:32:59;;;;;;;3.70;2.60;;;;;;;25.25;45.47;99231.84;6904725;25;19993;-68
2024/04/15 10:36:03;;;;;;;7.95;2.53;;;;;;;25.30;45.56;99226.69;6871604;25;20001;-68
2024/04/15 10:39:04;;;;;;;4.63;2.25;;;;;;;25.69;45.82;99208.88;6904302;25;20005;-68
2024/04/15 10:42:05;;;;;;;6.63;2.57;;;;;;;26.49;45.41;99215.63;6904685;25;19999;-68
2024/04/15 10:45:09;;;;;;;16.33;2.67;;;;;;;26.74;43.84;99202.28;6871365;25;20443;-68
2024/04/15 10:48:10;;;;;;;6.10;2.58;;;;;;;26.53;42.94;99216.84;6903958;25;20265;-68
2024/04/15 10:51:13;;;;;;;8.00;2.40;;;;;;;26.60;43.15;99208.78;6870943;25;20001;-68
2024/04/15 10:54:16;;;;;;;11.98;2.30;;;;;;;27.05;42.28;99204.03;6871132;25;20000;-68
2024/04/15 10:57:18;;;;;;;9.57;2.90;;;;;;;27.42;42.19;99192.53;6903944;25;20343;-68
2024/04/15 11:00:24;;;;;;;8.85;2.42;;;;;;;27.89;41.99;99185.56;6903666;25;20001;-68
2024/04/15 11:03:25;;;;;;;10.07;2.67;;;;;;;28.09;41.22;99179.91;6903783;25;20064;-69
2024/04/15 11:06:28;;;;;;;10.50;3.35;;;;;;;28.09;41.41;99169.19;6870897;25;20005;-68
2024/04/15 11:09:30;;;;;;;4.40;2.10;;;;;;;28.13;40.41;99170.38;6870848;25;20027;-68
2024/04/15 11:12:32;;;;;;;8.63;2.28;;;;;;;28.41;39.90;99163.53;6903552;25;19997;-68
2024/04/15 11:15:34;;;;;;;9.82;2.40;;;;;;;28.58;40.41;99152.97;6903546;25;20063;-68
2024/04/15 11:18:35;;;;;;;13.90;2.50;;;;;;;28.13;39.92;99156.16;6870654;25;20064;-69
2024/04/15 11:21:38;;;;;;;11.02;2.40;;;;;;;28.11;40.79;99145.66;6870538;25;20009;-69
2024/04/15 11:24:40;;;;;;;8.65;3.05;;;;;;;28.44;39.84;99138.13;6903523;25;20001;-69
2024/04/15 11:27:49;;;;;;;25.83;2.50;;;;;;;28.12;39.50;99136.53;6870625;25;19993;-68
2024/04/15 11:30:51;;;;;;;8.07;2.67;;;;;;;28.18;39.36;99132.13;6870478;25;20016;-68
2024/04/15 11:33:52;;;;;;;6.57;3.08;;;;;;;28.19;39.55;99119.53;6903152;25;19997;-68
2024/04/15 11:36:53;;;;;;;12.73;2.47;;;;;;;28.54;39.99;99124.97;6870358;25;20005;-68
2024/04/15 11:39:55;;;;;;;19.25;2.95;;;;;;;28.80;39.83;99107.53;6870718;25;20499;-69
2024/04/15 11:43:02;;;;;;;18.83;2.50;;;;;;;28.83;38.56;99114.34;6874983;25;20003;-68
2024/04/15 11:46:03;;;;;;;13.13;2.38;;;;;;;29.22;38.10;99099.31;6875405;25;20033;-68
2024/04/15 11:49:04;;;;;;;;;;;;;;;28.60;38.38;99099.06;6875736;25;20007;-68
2024/04/15 11:52:07;;;;;;;7.43;2.57;;;;;;;28.83;39.22;99098.22;6874848;25;19923;-68
2024/04/15 11:55:18;;;;;;;6.93;2.28;;;;;;;28.87;37.50;99077.91;6874810;25;20004;-68
2024/04/15 11:58:20;;;;;;;8.43;2.43;;;;;;;28.88;37.25;99079.53;6874625;25;19993;-68
2024/04/15 12:01:22;;;;;;;21.17;2.55;;;;;;;29.10;37.97;99075.19;6907394;25;20072;-70
2024/04/15 12:04:24;;;;;;;17.02;2.85;;;;;;;28.88;37.97;99063.44;6907251;25;19997;-76
2024/04/15 12:07:25;;;;;;;16.30;2.47;;;;;;;28.71;37.05;99058.78;6907196;25;19997;-76
2024/04/15 12:10:27;;;;;;;23.42;2.95;;;;;;;28.67;38.73;99059.50;6907093;25;20001;-75
2024/04/15 12:13:28;;;;;;;18.05;2.63;;;;;;;29.10;38.90;99059.06;6874424;25;19997;-76
2024/04/15 12:16:29;;;;;;;16.73;2.85;;;;;;;29.10;37.32;99055.53;6874464;25;20004;-76
2024/04/15 12:19:30;;;;;;;;;;;;;;;28.87;37.41;99056.44;6907892;25;20078;-76
2024/04/15 12:22:31;;;;;;;10.47;2.07;;;;;;;29.26;38.55;99048.59;6874114;25;19935;-76
2024/04/15 12:25:32;;;;;;;12.57;2.28;;;;;;;29.38;36.67;99043.19;6906871;25;19996;-76
2024/04/15 12:28:35;;;;;;;14.55;2.42;;;;;;;29.35;36.89;99038.31;6874142;25;20750;-76
2024/04/15 12:31:36;;;;;;;10.38;2.05;;;;;;;29.44;37.10;99028.78;6906791;25;20037;-67
2024/04/15 12:34:38;;;;;;;;;;;;;;;29.52;37.02;99018.44;6907580;25;20451;-68
2024/04/15 12:37:42;;;;;;;5.60;2.13;;;;;;;29.26;38.54;99025.28;6874037;25;20369;-68
2024/04/15 12:40:43;;;;;;;6.82;2.40;;;;;;;29.13;39.24;99014.81;6906866;25;20071;-68
2024/04/15 12:43:46;;;;;;;;;;;;;;;29.47;39.80;99018.38;6907321;25;20004;-67
2024/04/15 12:46:48;;;;;;;6.25;2.38;;;;;;;29.59;38.19;99012.94;6906537;25;19955;-67
2024/04/15 12:49:51;;;;;;;9.32;2.47;;;;;;;29.52;39.26;99013.06;6906549;25;20001;-76
2024/04/15 12:52:52;;;;;;;6.97;2.22;;;;;;;29.41;38.62;99007.78;6873406;25;20012;-76
2024/04/15 12:55:56;;;;;;;7.90;2.17;;;;;;;29.29;39.39;99003.28;6906270;25;20358;-76
2024/04/15 12:58:57;;;;;;;9.40;2.40;;;;;;;29.37;37.98;98985.16;6873852;25;20140;-76
2024/04/15 13:01:58;;;;;;;12.25;2.67;;;;;;;29.49;38.93;98986.72;6906389;25;20443;-76
2024/04/15 13:04:59;;;;;;;9.32;2.60;;;;;;;29.28;38.63;98985.56;6873603;25;19993;-76
2024/04/15 13:08:04;;;;;;;6.53;2.00;;;;;;;29.46;38.81;98978.31;6906302;25;19996;-76
2024/04/15 13:11:11;;;;;;;5.28;2.25;;;;;;;29.62;38.56;98971.31;6906379;25;20001;-76
2024/04/15 13:14:12;;;;;;;8.43;2.22;;;;;;;29.63;38.70;98970.25;6873838;25;19997;-76
2024/04/15 13:17:13;;;;;;;;;;;;;;;29.51;38.95;98965.78;6906687;25;20003;-76
2024/04/15 13:20:14;;;;;;;9.17;2.63;;;;;;;29.26;39.51;98958.13;6873401;25;19955;-75
2024/04/15 13:23:16;;;;;;;9.85;2.50;;;;;;;29.10;39.03;98954.34;6873223;25;20015;-76
2024/04/15 13:26:16;;;;;;;4.70;2.33;;;;;;;29.37;39.13;98945.66;6872984;25;20007;-76
2024/04/15 13:29:18;;;;;;;;;;;;;;;29.64;38.90;98947.69;6906326;25;20403;-76
2024/04/15 13:32:19;;;;;;;3.78;2.15;;;;;;;29.39;38.63;98935.50;6905793;25;19961;-76
2024/04/15 13:35:20;;;;;;;;;;;;;;;29.23;39.04;98938.97;6873702;25;20001;-76
2024/04/15 13:38:23;;;;;;;9.07;2.20;;;;;;;29.00;38.57;98926.47;6905494;25;19990;-76
2024/04/15 13:41:24;;;;;;;7.85;2.20;;;;;;;28.97;39.22;98929.63;6905435;25;20522;-75
2024/04/15 13:44:25;;;;;;;;;;;;;;;29.01;39.85;98928.09;6906018;25;20400;-75
2024/04/15 13:47:26;;;;;;;10.67;2.57;;;;;;;28.99;39.72;98927.50;6905419;25;19922;-76
2024/04/15 13:50:29;;;;;;;;;;;;;;;29.18;38.96;98918.22;6906153;25;19992;-75
2024/04/15 13:53:32;;;;;;;6.53;2.50;;;;;;;29.13;40.51;98921.63;6905290;25;19929;-76
2024/04/15 13:56:33;;;;;;;9.02;2.10;;;;;;;29.10;39.13;98914.06;6905425;25;19997;-76
2024/04/15 13:59:39;;;;;;;7.57;2.35;;;;;;;29.22;39.74;98926.59;6873046;25;20345;-75
2024/04/15 14:02:40;;;;;;;6.50;2.33;;;;;;;29.33;40.11;98925.72;6951101;25;19996;-76
2024/04/15 14:05:41;;;;;;;12.50;2.67;;;;;;;29.09;39.29;98912.38;6952351;25;20000;-75
2024/04/15 14:08:44;;;;;;;;;;;;;;;28.99;39.61;98911.41;6953108;25;19988;-76
2024/04/15 14:11:45;;;;;;;8.98;2.45;;;;;;;28.97;40.18;98913.50;6918809;25;19923;-76
2024/04/15 14:14:46;;;;;;;;;;;;;;;28.77;39.97;98913.97;6953262;25;20004;-76
2024/04/15 14:17:48;;;;;;;3.88;2.17;;;;;;;28.81;40.26;98907.88;6952466;25;20369;-76
2024/04/15 14:20:48;;;;;;;14.48;2.40;;;;;;;28.63;40.21;98908.06;6952238;25;20003;-75